Terminal Aerodrome Forecast
Issued by NWS Grand Forks, ND

Home | Current Version | Previous Version | Graphics & Text | Print | Product List | Glossary On
Versions: 1 2 3 4 5 6 7 8 9 10 11 12 13 14 15 16 17 18
000
FTUS43 KFGF 252300
TAFFAR
TAF
KFAR 252339Z 2600/2624 20006KT P6SM BKN025
     FM260400 18012G17KT P6SM BKN025
     FM260700 18016G23KT P6SM BKN025
     FM261000 30015G23KT P6SM BKN050
     FM261500 31015G25KT P6SM BKN050=

USA.gov is the U.S. government's official web portal to all federal, state and local government web resources and services.